createdAt,value
2019-02-12T00:00:54.238Z,93.27
2019-02-12T00:01:54.223Z,93.37
2019-02-12T00:02:54.212Z,93.18
2019-02-12T00:03:54.192Z,93.08
2019-02-12T00:04:54.182Z,93.18
2019-02-12T00:05:54.166Z,93.08
2019-02-12T00:06:54.151Z,93.08
2019-02-12T00:07:54.136Z,93.18
2019-02-12T00:08:54.119Z,93.18
2019-02-12T00:09:54.104Z,92.9
2019-02-12T00:10:54.093Z,93.46
2019-02-12T00:11:54.075Z,92.99
2019-02-12T00:12:54.060Z,92.99
2019-02-12T00:13:54.052Z,93.18
2019-02-12T00:14:54.041Z,93.18
2019-02-12T00:15:54.015Z,92.99
2019-02-12T00:16:54.001Z,92.99
2019-02-12T00:17:53.986Z,93.27
2019-02-12T00:18:53.972Z,93.46
2019-02-12T00:19:53.957Z,92.99
2019-02-12T00:20:53.939Z,93.18
2019-02-12T00:21:53.924Z,93.08
2019-02-12T00:22:53.917Z,92.99
2019-02-12T00:23:53.946Z,93.08
2019-02-12T00:24:53.892Z,93.56
2019-02-12T00:25:53.867Z,92.71
2019-02-12T00:26:53.857Z,93.27
2019-02-12T00:27:53.837Z,93.37
2019-02-12T00:28:53.823Z,92.99
2019-02-12T00:29:53.813Z,93.27
2019-02-12T00:30:53.794Z,93.18
2019-02-12T00:31:53.779Z,93.18
2019-02-12T00:32:53.788Z,93.56
2019-02-12T00:33:53.753Z,93.18
2019-02-12T00:34:53.734Z,93.27
2019-02-12T00:35:53.724Z,93.37
2019-02-12T00:36:53.707Z,93.27
2019-02-12T00:37:53.692Z,93.18
2019-02-12T00:38:53.679Z,93.27
2019-02-12T00:39:53.660Z,93.08
2019-02-12T00:40:53.649Z,92.99
2019-02-12T00:41:53.634Z,93.18
2019-02-12T00:42:53.618Z,93.08
2019-02-12T00:43:53.602Z,93.65
2019-02-12T00:44:53.594Z,93.27
2019-02-12T00:45:53.579Z,93.46
2019-02-12T00:46:53.560Z,94.23
2019-02-12T00:47:53.550Z,93.56
2019-02-12T00:48:53.556Z,94.04
2019-02-12T00:49:53.519Z,93.75
2019-02-12T00:50:53.505Z,93.94
2019-02-12T00:51:53.487Z,93.84
2019-02-12T00:52:53.473Z,94.32
2019-02-12T00:53:53.459Z,94.42
2019-02-12T00:54:53.467Z,94.7
2019-02-12T00:55:53.428Z,94.42
2019-02-12T00:56:53.411Z,94.32
2019-02-12T00:57:53.396Z,94.23
2019-02-12T00:58:53.385Z,94.32
2019-02-12T00:59:53.370Z,94.42
2019-02-12T01:00:53.406Z,94.42
2019-02-12T01:01:53.338Z,94.42
2019-02-12T01:02:53.324Z,94.51
2019-02-12T01:03:53.312Z,94.6
2019-02-12T01:04:53.294Z,94.51
2019-02-12T01:05:53.279Z,95.17
2019-02-12T01:06:53.265Z,94.79
2019-02-12T01:07:53.257Z,95.17
2019-02-12T01:08:53.234Z,94.98
2019-02-12T01:09:53.219Z,95.45
2019-02-12T01:10:53.206Z,95.55
2019-02-12T01:11:53.194Z,95.36
2019-02-12T01:12:53.175Z,95.07
2019-02-12T01:13:53.161Z,95.26
2019-02-12T01:14:53.145Z,95.07
2019-02-12T01:15:53.136Z,95.55
2019-02-12T01:16:53.116Z,95.26
2019-02-12T01:17:53.102Z,95.26
2019-02-12T01:18:53.088Z,95.26
2019-02-12T01:19:53.071Z,95.17
2019-02-12T01:20:53.057Z,95.17
2019-02-12T01:21:53.044Z,95.93
2019-02-12T01:22:53.028Z,96.12
2019-02-12T01:23:53.013Z,95.65
2019-02-12T01:24:53.001Z,96.12
2019-02-12T01:25:52.984Z,96.03
2019-02-12T01:26:52.969Z,96.78
2019-02-12T01:27:52.958Z,96.78
2019-02-12T01:28:52.939Z,96.31
2019-02-12T01:29:52.925Z,96.73
2019-02-12T01:30:52.911Z,96.92
2019-02-12T01:31:52.896Z,97.59
2019-02-12T01:32:52.884Z,97.59
2019-02-12T01:33:52.866Z,97.4
2019-02-12T01:34:52.857Z,97.78
2019-02-12T01:35:52.836Z,97.59
2019-02-12T01:36:52.821Z,97.59
2019-02-12T01:37:52.810Z,97.4
2019-02-12T01:38:52.796Z,97.59
2019-02-12T01:39:52.778Z,97.87
2019-02-12T01:40:52.771Z,98.16
2019-02-12T01:41:52.746Z,98.06
2019-02-12T01:42:52.730Z,98.06
2019-02-12T01:43:52.722Z,98.06
2019-02-12T01:44:52.705Z,98.16
2019-02-12T01:45:52.683Z,98.21
2019-02-12T01:46:52.680Z,98.16
2019-02-12T01:47:52.660Z,98.39
2019-02-12T01:48:52.648Z,97.73
2019-02-12T01:49:52.625Z,97.64
2019-02-12T01:50:52.613Z,97.35
2019-02-12T01:51:52.595Z,97.54
2019-02-12T01:52:52.580Z,97.73
2019-02-12T01:53:52.571Z,97.73
2019-02-12T01:54:52.553Z,96.97
2019-02-12T01:55:52.538Z,96.88
2019-02-12T01:56:52.520Z,96.78
2019-02-12T01:57:52.506Z,96.97
2019-02-12T01:58:52.491Z,96.88
2019-02-12T01:59:52.476Z,96.88
2019-02-12T02:00:52.461Z,97.07
2019-02-12T02:01:52.446Z,97.07
2019-02-12T02:02:52.432Z,96.69
2019-02-12T02:03:52.414Z,96.69
2019-02-12T02:04:52.402Z,96.59
2019-02-12T02:05:52.387Z,96.88
2019-02-12T02:06:52.371Z,96.88
2019-02-12T02:07:52.357Z,96.31
2019-02-12T02:08:52.345Z,96.31
2019-02-12T02:09:52.328Z,96.88
2019-02-12T02:10:52.314Z,96.12
2019-02-12T02:11:52.300Z,96.12
2019-02-12T02:12:52.282Z,96.88
2019-02-12T02:13:52.268Z,97.16
2019-02-12T02:14:52.256Z,97.16
2019-02-12T02:15:52.286Z,96.31
2019-02-12T02:16:52.229Z,96.12
2019-02-12T02:17:52.208Z,96.22
2019-02-12T02:18:52.224Z,96.12
2019-02-12T02:19:52.189Z,96.03
2019-02-12T02:20:52.167Z,96.12
2019-02-12T02:21:52.150Z,95.36
2019-02-12T02:22:52.134Z,95.36
2019-02-12T02:23:52.120Z,95.36
2019-02-12T02:24:52.130Z,95.74
2019-02-12T02:25:52.089Z,95.84
2019-02-12T02:26:52.075Z,95.65
2019-02-12T02:27:52.065Z,95.55
2019-02-12T02:28:52.050Z,95.55
2019-02-12T02:29:52.030Z,95.93
2019-02-12T02:30:52.017Z,95.65
2019-02-12T02:31:52.006Z,95.74
2019-02-12T02:32:51.988Z,95.93
2019-02-12T02:33:51.972Z,95.45
2019-02-12T02:34:51.958Z,94.32
2019-02-12T02:35:51.954Z,94.79
2019-02-12T02:36:51.934Z,94.89
2019-02-12T02:37:51.928Z,95.17
2019-02-12T02:38:51.899Z,94.51
2019-02-12T02:39:51.888Z,94.42
2019-02-12T02:40:51.870Z,95.07
2019-02-12T02:41:51.854Z,95.07
2019-02-12T02:42:51.841Z,95.55
2019-02-12T02:43:51.828Z,94.98
2019-02-12T02:44:51.822Z,94.32
2019-02-12T02:45:51.796Z,94.6
2019-02-12T02:46:51.785Z,94.42
2019-02-12T02:47:51.772Z,94.23
2019-02-12T02:48:51.752Z,93.84
2019-02-12T02:49:51.737Z,93.84
2019-02-12T02:50:51.726Z,93.94
2019-02-12T02:51:56.522Z,93.56
2019-02-12T02:52:51.699Z,93.75
2019-02-12T02:53:51.680Z,93.65
2019-02-12T02:54:51.664Z,93.27
2019-02-12T02:55:51.649Z,93.65
2019-02-12T02:56:51.661Z,93.37
2019-02-12T02:57:51.622Z,93.65
2019-02-12T02:58:51.603Z,93.27
2019-02-12T02:59:51.599Z,93.46
2019-02-12T03:00:51.336Z,93.27
2019-02-12T03:01:51.566Z,94.04
2019-02-12T03:02:51.545Z,93.84
2019-02-12T03:03:51.534Z,93.56
2019-02-12T03:04:51.516Z,93.94
2019-02-12T03:05:51.262Z,93.84
2019-02-12T03:06:51.487Z,93.46
2019-02-12T03:07:51.473Z,93.75
2019-02-12T03:08:51.462Z,94.13
2019-02-12T03:09:51.445Z,93.94
2019-02-12T03:10:52.282Z,94.04
2019-02-12T03:11:51.416Z,94.04
2019-02-12T03:12:51.400Z,93.94
2019-02-12T03:13:51.383Z,94.6
2019-02-12T03:14:51.383Z,94.42
2019-02-12T03:15:51.377Z,94.23
2019-02-12T03:16:51.343Z,94.6
2019-02-12T03:17:51.331Z,94.6
2019-02-12T03:18:51.314Z,94.7
2019-02-12T03:19:51.302Z,94.51
2019-02-12T03:20:51.282Z,94.51
2019-02-12T03:21:51.270Z,94.42
2019-02-12T03:22:51.257Z,94.51
2019-02-12T03:23:51.247Z,95.36
2019-02-12T03:24:51.226Z,94.98
2019-02-12T03:25:51.209Z,94.89
2019-02-12T03:26:51.199Z,94.98
2019-02-12T03:27:51.196Z,95.07
2019-02-12T03:28:51.166Z,94.98
2019-02-12T03:29:51.153Z,95.17
2019-02-12T03:30:51.269Z,95.36
2019-02-12T03:31:51.154Z,95.17
2019-02-12T03:32:51.118Z,95.84
2019-02-12T03:33:51.099Z,95.74
2019-02-12T03:34:51.082Z,95.55
2019-02-12T03:35:51.070Z,95.55
2019-02-12T03:36:51.048Z,95.74
2019-02-12T03:37:51.052Z,95.07
2019-02-12T03:38:51.021Z,95.84
2019-02-12T03:39:51.014Z,95.74
2019-02-12T03:40:51.003Z,95.93
2019-02-12T03:41:50.977Z,95.65
2019-02-12T03:42:50.978Z,95.65
2019-02-12T03:43:50.949Z,95.74
2019-02-12T03:44:50.930Z,95.65
2019-02-12T03:45:50.922Z,96.12
2019-02-12T03:46:50.904Z,95.65
2019-02-12T03:47:50.904Z,95.84
2019-02-12T03:48:50.873Z,96.12
2019-02-12T03:49:50.858Z,96.5
2019-02-12T03:50:50.846Z,96.22
2019-02-12T03:51:50.832Z,96.88
2019-02-12T03:52:50.818Z,96.78
2019-02-12T03:53:50.808Z,96.88
2019-02-12T03:54:50.785Z,96.69
2019-02-12T03:55:50.776Z,96.97
2019-02-12T03:56:50.758Z,97.54
2019-02-12T03:57:50.747Z,97.64
2019-02-12T03:58:50.731Z,97.45
2019-02-12T03:59:50.736Z,97.73
2019-02-12T04:00:50.700Z,98.11
2019-02-12T04:01:50.705Z,98.72
2019-02-12T04:02:50.668Z,98.25
2019-02-12T04:03:50.651Z,98.72
2019-02-12T04:04:50.640Z,99.1
2019-02-12T04:05:50.624Z,99.48
2019-02-12T04:06:50.626Z,99.39
2019-02-12T04:07:50.593Z,99.48
2019-02-12T04:08:50.582Z,99.96
2019-02-12T04:09:50.675Z,99.77
2019-02-12T04:10:50.547Z,99.86
2019-02-12T04:11:50.536Z,99.58
2019-02-12T04:12:50.525Z,99.96
2019-02-12T04:13:50.520Z,99.99
2019-02-12T04:14:50.244Z,99.99
2019-02-12T04:15:50.475Z,99.99
2019-02-12T04:16:50.506Z,99.99
2019-02-12T04:17:50.446Z,99.99
2019-02-12T04:18:50.426Z,99.99
2019-02-12T04:19:50.411Z,99.99
2019-02-12T04:20:50.404Z,99.99
2019-02-12T04:21:50.386Z,99.99
2019-02-12T04:22:50.368Z,99.99
2019-02-12T04:23:50.353Z,99.99
2019-02-12T04:24:50.346Z,99.99
2019-02-12T04:25:50.320Z,99.99
2019-02-12T04:26:50.302Z,99.99
2019-02-12T04:27:50.287Z,99.99
2019-02-12T04:28:50.271Z,99.99
2019-02-12T04:29:50.256Z,99.99
2019-02-12T04:30:50.241Z,99.99
2019-02-12T04:31:50.225Z,99.99
2019-02-12T04:32:50.209Z,99.99
2019-02-12T04:33:50.195Z,99.99
2019-02-12T04:34:50.182Z,99.99
2019-02-12T04:35:50.228Z,99.99
2019-02-12T04:36:50.158Z,99.99
2019-02-12T04:37:50.129Z,99.99
2019-02-12T04:38:50.114Z,99.99
2019-02-12T04:39:50.101Z,99.99
2019-02-12T04:40:50.083Z,99.99
2019-02-12T04:41:50.068Z,99.99
2019-02-12T04:42:50.054Z,99.99
2019-02-12T04:43:50.037Z,99.99
2019-02-12T04:44:50.021Z,99.99
2019-02-12T04:45:50.010Z,99.99
2019-02-12T04:46:49.999Z,99.99
2019-02-12T04:47:49.975Z,99.99
2019-02-12T04:48:49.960Z,99.99
2019-02-12T04:49:49.945Z,99.99
2019-02-12T04:50:49.926Z,99.99
2019-02-12T04:51:49.673Z,99.99
2019-02-12T04:52:49.894Z,99.99
2019-02-12T04:53:49.877Z,99.99
2019-02-12T04:54:49.869Z,99.99
2019-02-12T04:55:49.855Z,99.99
2019-02-12T04:56:49.831Z,99.99
2019-02-12T04:57:49.815Z,99.99
2019-02-12T04:58:49.802Z,99.99
2019-02-12T04:59:49.544Z,99.99
2019-02-12T05:00:49.786Z,99.99
2019-02-12T05:01:49.761Z,99.99
2019-02-12T05:02:49.736Z,99.99
2019-02-12T05:03:49.723Z,99.99
2019-02-12T05:04:49.707Z,99.99
2019-02-12T05:05:49.693Z,99.99
2019-02-12T05:06:49.677Z,99.99
2019-02-12T05:07:49.695Z,99.99
2019-02-12T05:08:49.639Z,99.99
2019-02-12T05:09:49.626Z,99.99
2019-02-12T05:10:49.628Z,99.99
2019-02-12T05:11:49.592Z,99.99
2019-02-12T05:12:49.590Z,99.99
2019-02-12T05:13:49.562Z,99.99
2019-02-12T05:14:49.544Z,99.99
2019-02-12T05:15:49.529Z,99.99
2019-02-12T05:16:49.510Z,99.99
2019-02-12T05:17:49.497Z,99.99
2019-02-12T05:18:49.489Z,99.99
2019-02-12T05:19:49.467Z,99.99
2019-02-12T05:20:49.452Z,99.99
2019-02-12T05:21:49.433Z,99.99
2019-02-12T05:22:49.423Z,99.99
2019-02-12T05:23:49.406Z,99.99
2019-02-12T05:24:49.384Z,99.99
2019-02-12T05:25:49.374Z,99.99
2019-02-12T05:26:49.361Z,99.99
2019-02-12T05:27:49.341Z,99.99
2019-02-12T05:28:49.324Z,99.99
2019-02-12T05:29:49.311Z,99.99
2019-02-12T05:30:49.332Z,99.99
2019-02-12T05:31:49.272Z,99.99
2019-02-12T05:32:49.258Z,99.99
2019-02-12T05:33:49.241Z,99.99
2019-02-12T05:34:49.239Z,99.99
2019-02-12T05:35:49.210Z,99.99
2019-02-12T05:36:49.194Z,99.99
2019-02-12T05:37:49.177Z,99.99
2019-02-12T05:38:49.163Z,99.99
2019-02-12T05:39:49.175Z,99.99
2019-02-12T05:40:49.131Z,99.99
2019-02-12T05:41:49.117Z,99.99
2019-02-12T05:42:49.101Z,99.99
2019-02-12T05:43:49.086Z,99.99
2019-02-12T05:44:49.069Z,99.99
2019-02-12T05:45:49.050Z,99.99
2019-02-12T05:46:48.811Z,99.99
2019-02-12T05:47:49.025Z,99.99
2019-02-12T05:48:49.006Z,99.99
2019-02-12T05:49:49.000Z,99.99
2019-02-12T05:50:48.970Z,99.99
2019-02-12T05:51:48.957Z,99.99
2019-02-12T05:52:56.407Z,99.99
2019-02-12T05:53:48.947Z,99.99
2019-02-12T05:54:48.910Z,99.99
2019-02-12T05:55:48.911Z,99.99
2019-02-12T05:56:48.888Z,99.99
2019-02-12T05:57:48.869Z,99.99
2019-02-12T05:58:48.846Z,99.99
2019-02-12T05:59:49.560Z,99.99
2019-02-12T06:00:48.823Z,99.99
2019-02-12T06:01:48.806Z,99.99
2019-02-12T06:02:48.791Z,99.99
2019-02-12T06:03:48.777Z,99.99
2019-02-12T06:04:48.758Z,99.99
2019-02-12T06:05:48.736Z,99.99
2019-02-12T06:06:48.721Z,99.99
2019-02-12T06:07:48.708Z,99.99
2019-02-12T06:08:48.827Z,99.99
2019-02-12T06:09:48.685Z,99.99
2019-02-12T06:10:48.658Z,99.99
2019-02-12T06:11:48.666Z,99.99
2019-02-12T06:12:48.657Z,99.99
2019-02-12T06:13:48.661Z,99.99
2019-02-12T06:14:48.598Z,99.99
2019-02-12T06:15:48.582Z,99.99
2019-02-12T06:16:48.588Z,99.99
2019-02-12T06:17:48.560Z,99.99
2019-02-12T06:18:48.538Z,99.99
2019-02-12T06:19:48.522Z,99.99
2019-02-12T06:20:48.507Z,99.99
2019-02-12T06:21:48.495Z,99.99
2019-02-12T06:22:48.478Z,99.99
2019-02-12T06:23:48.463Z,99.99
2019-02-12T06:24:48.451Z,99.99
2019-02-12T06:25:48.433Z,99.99
2019-02-12T06:26:48.416Z,99.99
2019-02-12T06:27:48.404Z,99.99
2019-02-12T06:28:48.386Z,99.99
2019-02-12T06:29:48.373Z,99.99
2019-02-12T06:30:48.356Z,99.99
2019-02-12T06:31:48.354Z,99.63
2019-02-12T06:32:48.335Z,99.72
2019-02-12T06:33:48.314Z,99.99
2019-02-12T06:34:48.299Z,99.91
2019-02-12T06:35:48.284Z,99.53
2019-02-12T06:36:48.280Z,99.06
2019-02-12T06:37:48.254Z,99.34
2019-02-12T06:38:48.238Z,99.15
2019-02-12T06:39:48.223Z,98.87
2019-02-12T06:40:48.220Z,99.25
2019-02-12T06:41:48.204Z,98.82
2019-02-12T06:42:48.181Z,99.01
2019-02-12T06:43:48.195Z,99.2
2019-02-12T06:44:48.154Z,98.92
2019-02-12T06:45:48.136Z,98.82
2019-02-12T06:46:48.123Z,98.63
2019-02-12T06:47:48.122Z,98.54
2019-02-12T06:48:48.090Z,98.54
2019-02-12T06:49:48.076Z,99.01
2019-02-12T06:50:48.068Z,98.44
2019-02-12T06:51:48.048Z,98.77
2019-02-12T06:52:48.033Z,98.63
2019-02-12T06:53:48.018Z,99.01
2019-02-12T06:54:48.003Z,98.73
2019-02-12T06:55:47.991Z,98.82
2019-02-12T06:56:47.985Z,98.73
2019-02-12T06:57:47.964Z,99.2
2019-02-12T06:58:47.947Z,99.01
2019-02-12T06:59:47.933Z,99.2
2019-02-12T07:00:47.916Z,98.82
2019-02-12T07:01:47.902Z,98.58
2019-02-12T07:02:47.887Z,98.82
2019-02-12T07:03:47.872Z,98.44
2019-02-12T07:04:47.858Z,98.44
2019-02-12T07:05:47.845Z,98.44
2019-02-12T07:06:47.833Z,98.82
2019-02-12T07:07:47.826Z,98.73
2019-02-12T07:08:47.799Z,98.54
2019-02-12T07:09:47.797Z,98.63
2019-02-12T07:10:47.771Z,98.44
2019-02-12T07:11:47.755Z,98.73
2019-02-12T07:12:47.756Z,98.44
2019-02-12T07:13:47.729Z,98.35
2019-02-12T07:14:47.714Z,98.63
2019-02-12T07:15:47.699Z,98.44
2019-02-12T07:16:47.684Z,98.25
2019-02-12T07:17:47.670Z,98.44
2019-02-12T07:18:47.657Z,98.25
2019-02-12T07:19:47.651Z,98.25
2019-02-12T07:20:47.626Z,98.35
2019-02-12T07:21:47.615Z,98.25
2019-02-12T07:22:47.602Z,98.25
2019-02-12T07:23:47.608Z,98.44
2019-02-12T07:24:47.574Z,98.63
2019-02-12T07:25:47.561Z,97.78
2019-02-12T07:26:47.546Z,97.59
2019-02-12T07:27:47.527Z,97.59
2019-02-12T07:28:47.513Z,97.12
2019-02-12T07:29:47.499Z,97.31
2019-02-12T07:30:47.489Z,97.31
2019-02-12T07:31:47.475Z,97.12
2019-02-12T07:32:47.458Z,97.31
2019-02-12T07:33:47.449Z,97.5
2019-02-12T07:34:47.429Z,97.12
2019-02-12T07:35:47.413Z,96.55
2019-02-12T07:36:47.401Z,96.55
2019-02-12T07:37:47.596Z,95.84
2019-02-12T07:38:47.371Z,96.12
2019-02-12T07:39:47.358Z,96.12
2019-02-12T07:40:47.347Z,95.93
2019-02-12T07:41:47.330Z,96.12
2019-02-12T07:42:47.319Z,95.84
2019-02-12T07:43:47.301Z,95.84
2019-02-12T07:44:47.288Z,95.74
2019-02-12T07:45:47.273Z,95.84
2019-02-12T07:46:47.261Z,96.12
2019-02-12T07:47:47.279Z,95.46
2019-02-12T07:48:47.735Z,95.27
2019-02-12T07:49:47.217Z,94.23
2019-02-12T07:50:47.214Z,94.6
2019-02-12T07:51:47.189Z,94.6
2019-02-12T07:52:47.179Z,94.42
2019-02-12T07:53:47.165Z,94.79
2019-02-12T07:54:47.155Z,94.51
2019-02-12T07:55:47.138Z,94.42
2019-02-12T07:56:47.125Z,94.03
2019-02-12T07:57:47.118Z,94.32
2019-02-12T07:58:47.183Z,93.84
2019-02-12T07:59:47.087Z,93.84
2019-02-12T08:00:47.387Z,93.27
2019-02-12T08:01:47.069Z,93.41
2019-02-12T08:02:47.043Z,93.37
2019-02-12T08:03:47.037Z,93.46
2019-02-12T08:04:47.061Z,93.13
2019-02-12T08:05:47.004Z,93.7
2019-02-12T08:06:46.993Z,93.32
2019-02-12T08:07:46.985Z,93.7
2019-02-12T08:08:46.969Z,92.94
2019-02-12T08:09:46.953Z,92.09
2019-02-12T08:10:46.939Z,92.09
2019-02-12T08:11:46.927Z,91.42
2019-02-12T08:12:46.928Z,91.99
2019-02-12T08:13:46.903Z,92.18
2019-02-12T08:14:46.900Z,92.18
2019-02-12T08:15:46.873Z,92.47
2019-02-12T08:16:46.863Z,92.28
2019-02-12T08:17:46.852Z,91.99
2019-02-12T08:18:46.839Z,91.04
2019-02-12T08:19:46.841Z,91.42
2019-02-12T08:20:46.814Z,90.8
2019-02-12T08:21:46.799Z,91.09
2019-02-12T08:22:46.787Z,90.71
2019-02-12T08:23:46.774Z,90.9
2019-02-12T08:24:46.793Z,90.99
2019-02-12T08:25:46.749Z,90.42
2019-02-12T08:26:46.739Z,90.47
2019-02-12T08:27:46.727Z,90.23
2019-02-12T08:28:46.712Z,90.47
2019-02-12T08:29:46.698Z,90.76
2019-02-12T08:30:46.693Z,90.33
2019-02-12T08:31:46.693Z,90.8
2019-02-12T08:32:46.662Z,90.71
2019-02-12T08:33:46.772Z,90.52
2019-02-12T08:34:47.409Z,90.61
2019-02-12T08:35:46.625Z,89.67
2019-02-12T08:36:46.614Z,89.28
2019-02-12T08:37:46.601Z,89.47
2019-02-12T08:38:46.587Z,88.81
2019-02-12T08:39:46.579Z,89.19
2019-02-12T08:40:46.590Z,88.81
2019-02-12T08:41:46.555Z,89.38
2019-02-12T08:42:46.538Z,89.28
2019-02-12T08:43:46.527Z,89
2019-02-12T08:44:46.520Z,89
2019-02-12T08:45:46.516Z,88.71
2019-02-12T08:46:46.511Z,88.71
2019-02-12T08:47:46.483Z,88.24
2019-02-12T08:48:46.488Z,88.43
2019-02-12T08:49:46.471Z,88.62
2019-02-12T08:50:46.448Z,88.43
2019-02-12T08:51:46.430Z,88.43
2019-02-12T08:52:46.429Z,88.47
2019-02-12T08:53:52.792Z,88.76
2019-02-12T08:54:46.400Z,88.38
2019-02-12T08:55:46.383Z,88.47
2019-02-12T08:56:46.370Z,87.71
2019-02-12T08:57:46.357Z,86.86
2019-02-12T08:58:46.345Z,86.57
2019-02-12T08:59:46.335Z,86.29
2019-02-12T09:00:47.467Z,86.1
2019-02-12T09:01:46.321Z,86.57
2019-02-12T09:02:46.301Z,86.86
2019-02-12T09:03:46.311Z,87.14
2019-02-12T09:04:46.276Z,87.14
2019-02-12T09:05:46.271Z,87.05
2019-02-12T09:06:46.271Z,86.57
2019-02-12T09:07:46.245Z,86.24
2019-02-12T09:08:46.231Z,86.24
2019-02-12T09:09:46.244Z,85.95
2019-02-12T09:10:46.210Z,85.95
2019-02-12T09:11:46.195Z,85.66
2019-02-12T09:12:46.183Z,85.28
2019-02-12T09:13:46.175Z,85.57
2019-02-12T09:14:46.163Z,85.43
2019-02-12T09:15:46.174Z,84.39
2019-02-12T09:16:46.144Z,84.95
2019-02-12T09:17:46.132Z,85.53
2019-02-12T09:18:46.117Z,85.43
2019-02-12T09:19:46.106Z,85.53
2019-02-12T09:20:45.878Z,85.15
2019-02-12T09:21:46.090Z,85.43
2019-02-12T09:22:46.085Z,85.38
2019-02-12T09:23:46.063Z,85.38
2019-02-12T09:24:46.058Z,84.81
2019-02-12T09:25:46.037Z,84.72
2019-02-12T09:26:46.034Z,84.52
2019-02-12T09:27:46.015Z,83.95
2019-02-12T09:28:46.004Z,84.05
2019-02-12T09:29:45.993Z,84.77
2019-02-12T09:30:45.982Z,84.72
2019-02-12T09:31:45.971Z,85.66
2019-02-12T09:32:45.962Z,84.62
2019-02-12T09:33:45.950Z,84.05
2019-02-12T09:34:45.945Z,83.1
2019-02-12T09:35:45.934Z,83.39
2019-02-12T09:36:45.920Z,83.67
2019-02-12T09:37:45.921Z,83.39
2019-02-12T09:38:45.896Z,83.29
2019-02-12T09:39:45.884Z,82.95
2019-02-12T09:40:45.875Z,82.86
2019-02-12T09:41:45.863Z,82.67
2019-02-12T09:42:45.856Z,82.19
2019-02-12T09:43:45.845Z,81.33
2019-02-12T09:44:45.830Z,81.81
2019-02-12T09:45:45.823Z,81.05
2019-02-12T09:46:45.809Z,81.05
2019-02-12T09:47:45.797Z,81.14
2019-02-12T09:48:45.791Z,80.57
2019-02-12T09:49:45.777Z,80
2019-02-12T09:50:45.770Z,80.57
2019-02-12T09:51:45.755Z,80.76
2019-02-12T09:52:45.744Z,80.42
2019-02-12T09:53:45.733Z,80.38
2019-02-12T09:54:45.481Z,79.57
2019-02-12T09:55:45.714Z,79.38
2019-02-12T09:56:45.707Z,79.24
2019-02-12T09:57:45.702Z,79.33
2019-02-12T09:58:45.681Z,79.62
2019-02-12T09:59:45.671Z,79.43
2019-02-12T10:00:45.665Z,79.24
2019-02-12T10:01:45.658Z,79.91
2019-02-12T10:02:45.649Z,79.14
2019-02-12T10:03:45.696Z,78.57
2019-02-12T10:04:45.618Z,77.62
2019-02-12T10:05:45.610Z,78.67
2019-02-12T10:06:45.605Z,78.48
2019-02-12T10:07:45.780Z,78.96
2019-02-12T10:08:45.582Z,78.67
2019-02-12T10:09:45.574Z,78.38
2019-02-12T10:10:45.655Z,78.19
2019-02-12T10:11:45.551Z,78.67
2019-02-12T10:12:45.536Z,79.43
2019-02-12T10:13:45.525Z,78.67
2019-02-12T10:14:45.520Z,77.81
2019-02-12T10:15:45.521Z,77.24
2019-02-12T10:16:45.493Z,76.57
2019-02-12T10:17:45.493Z,76.48
2019-02-12T10:18:45.494Z,74.62
2019-02-12T10:19:45.486Z,74.33
2019-02-12T10:20:45.452Z,73.95
2019-02-12T10:21:45.445Z,74.1
2019-02-12T10:22:45.443Z,73.82
2019-02-12T10:23:45.422Z,74.58
2019-02-12T10:24:45.409Z,74.39
2019-02-12T10:25:45.402Z,74.39
2019-02-12T10:26:45.390Z,72.58
2019-02-12T10:27:45.387Z,73.44
